Monday, November 20, 2017, 7:36 AM GMT
Back to Local

CYYY, Mont Joli, Que.

Location: , , Canada Lat: 48.6
Local Time: 7:36 AM GMT ( 7:36 GMT) Lon: -68.217
Time Zone: GMT Elev: 157 ft

Show me the last for .
Show Coded

Time T Td Feel RH Dir Speed Gust Alt SLP Vis Weather Sky Remarks
2017-11-20 07:00 28 21 11 74 270° 23 40 29.26 29.28 15 OVC030 Pressure rising rapidly
2017-11-20 06:00 28 23 12 79 240° 24 36 29.22 29.23 15 OVC032 Pressure rising rapidly
2017-11-20 05:00 30 25 14 80 240° 26 36 29.19 29.20 15 OVC032 Pressure rising rapidly
2017-11-20 04:00 30 25 14 80 240° 21 37 29.16 29.17 15 BKN030 OVC070 None
2017-11-20 03:00 32 27 17 80 240° 26 35 29.13 29.14 15 OVC025 None
2017-11-20 02:36 32 28 17 86 240° 22 33 29.11 29.13 15 OVC028 None
2017-11-20 02:00 32 28 17 86 240° 22 31 29.10 29.10 10 -SN SCT010 OVC030 None
2017-11-20 01:38 32 30 18 92 240° 20 26 29.08 29.09 6 -SN SCT009 OVC025 None
2017-11-20 01:23 32 30 18 92 240° 17 29 29.07 29.08 4 -SN BKN009 OVC019 None
2017-11-20 01:18 32 30 18 92 240° 18 26 29.07 29.08 2 -SN BKN008 OVC015 None
2017-11-20 01:09 32 32 18 100 240° 16 26 29.06 29.07 2 -SN OVC006 None
2017-11-20 01:00 32 32 19 100 240° 15 22 29.06 29.07 1 -RASN OVC004 None
2017-11-20 00:44 34 34 21 100 250° 18 26 29.05 29.06 1 -RASN OVC003 Pressure rising rapidly
2017-11-20 00:26 34 34 21 100 270° 17 26 29.03 29.04 2 -RA BR OVC003 None
2017-11-20 00:00 36 36 23 100 240° 17 26 29.02 29.02 1 -RA BR OVC003 None
2017-11-19 23:00 34 34 30 100 210° 5 - 28.99 29.00 1 -RA BR BKN004 OVC010 None
2017-11-19 22:44 36 36 - 100 180° 2 - 28.98 28.99 1 -RA BR OVC003 None
2017-11-19 22:00 36 36 - 100 - Calm - 28.97 28.98 2 -RA BR BKN003 OVC012 None
2017-11-19 21:50 36 36 - 100 - Calm - 28.97 28.98 2 -RA BR OVC003 None
2017-11-19 21:35 36 36 29 100 50° 8 - 28.97 28.98 2 -RA BR SCT004 OVC013 None
2017-11-19 21:00 36 36 30 100 20° 7 - 28.97 28.98 5 -RA BR FEW004 OVC015 None
2017-11-19 20:32 36 36 30 100 20° 7 - 28.98 28.99 5 -RA BR SCT004 OVC015 None
2017-11-19 20:00 37 36 35 93 340° 3 - 28.99 29.00 10 -RA OVC017 None
2017-11-19 19:43 37 36 - 93 - Calm - 28.99 29.00 10 -RA OVC017 None
2017-11-19 19:00 37 36 34 93 340° 5 - 28.99 29.00 5 -RA OVC013 None
2017-11-19 18:54 37 36 32 93 30° 7 - 28.99 29.00 10 -RA OVC013 None
2017-11-19 18:00 37 34 30 86 50° 10 - 29.01 29.02 15 -RA OVC016 None
2017-11-19 17:41 37 34 30 86 50° 12 - 29.03 29.04 15 -RA OVC017 Pressure falling rapidly
2017-11-19 17:22 36 34 28 93 50° 12 - 29.05 29.06 15 OVC018 None
2017-11-19 17:00 36 34 28 93 60° 10 - 29.07 29.08 15 -RA OVC015 Pressure falling rapidly
2017-11-19 16:00 36 34 28 93 50° 12 - 29.13 29.14 15 -RA BKN015 OVC041 None
2017-11-19 15:00 34 32 26 93 80° 9 - 29.18 29.19 5 -RA BR SCT015 OVC041 None
2017-11-19 14:00 34 32 26 93 70° 9 - 29.24 29.25 5 -RA BR SCT015 OVC040 Pressure falling rapidly
2017-11-19 13:00 32 30 23 92 80° 13 - 29.29 29.30 3 -RA BR FEW015 OVC048 None
2017-11-19 12:51 32 30 21 92 80° 10 17 29.30 29.31 3 -RA OVC049 None
2017-11-19 12:00 32 30 22 92 90° 14 - 29.32 29.33 3 -FZRA BR SCT036 OVC056 Pressure falling rapidly
2017-11-19 11:00 32 28 24 86 80° 10 - 29.36 29.38 10 -FZRA OVC050 None
2017-11-19 10:00 32 27 20 80 100° 13 21 29.41 29.43 15 -FZRA OVC042 Pressure falling rapidly
2017-11-19 09:42 32 25 20 74 110° 10 18 29.43 29.45 10 -FZRA OVC045 None
2017-11-19 09:00 28 25 20 86 100° 8 - 29.45 29.46 15 OVC040 Pressure falling rapidly
2017-11-19 08:00 27 23 18 86 60° 8 - 29.52 29.54 15 OVC040 None

Support USWX by starting your Amazon purchase here.